createdAt,value
2019-06-25T00:00:04.637Z,0.00
2019-06-25T00:01:04.651Z,0.00
2019-06-25T00:02:04.639Z,0.00
2019-06-25T00:03:04.625Z,0.00
2019-06-25T00:04:04.595Z,0.00
2019-06-25T00:05:04.584Z,0.00
2019-06-25T00:06:04.569Z,0.00
2019-06-25T00:07:04.557Z,0.00
2019-06-25T00:08:04.546Z,0.00
2019-06-25T00:09:04.544Z,0.00
2019-06-25T00:10:04.522Z,0.00
2019-06-25T00:11:04.512Z,0.00
2019-06-25T00:12:04.500Z,0.00
2019-06-25T00:13:04.488Z,0.00
2019-06-25T00:14:04.475Z,0.00
2019-06-25T00:15:04.462Z,0.00
2019-06-25T00:16:04.453Z,0.00
2019-06-25T00:17:04.445Z,0.00
2019-06-25T00:18:04.430Z,0.00
2019-06-25T00:19:04.420Z,0.00
2019-06-25T00:20:04.408Z,0.00
2019-06-25T00:21:04.395Z,0.00
2019-06-25T00:22:04.383Z,0.00
2019-06-25T00:23:04.374Z,0.00
2019-06-25T00:24:04.359Z,0.00
2019-06-25T00:25:04.350Z,0.00
2019-06-25T00:26:04.335Z,0.00
2019-06-25T00:27:04.325Z,0.00
2019-06-25T00:28:04.313Z,0.00
2019-06-25T00:29:04.300Z,0.00
2019-06-25T00:30:04.308Z,0.00
2019-06-25T00:31:04.276Z,0.00
2019-06-25T00:32:04.275Z,0.00
2019-06-25T00:33:04.254Z,0.00
2019-06-25T00:34:04.249Z,0.00
2019-06-25T00:35:04.252Z,0.00
2019-06-25T00:36:04.217Z,0.00
2019-06-25T00:37:04.211Z,0.00
2019-06-25T00:38:04.251Z,0.00
2019-06-25T00:39:04.199Z,0.00
2019-06-25T00:40:04.177Z,0.00
2019-06-25T00:41:04.162Z,0.00
2019-06-25T00:42:04.147Z,0.00
2019-06-25T00:43:04.137Z,0.00
2019-06-25T00:44:04.124Z,0.00
2019-06-25T00:45:04.112Z,0.00
2019-06-25T00:46:04.102Z,0.00
2019-06-25T00:47:04.086Z,0.00
2019-06-25T00:48:04.077Z,0.00
2019-06-25T00:49:04.064Z,0.00
2019-06-25T00:50:04.052Z,0.00
2019-06-25T00:51:04.039Z,0.00
2019-06-25T00:52:04.027Z,0.00
2019-06-25T00:53:04.015Z,0.00
2019-06-25T00:54:04.006Z,0.00
2019-06-25T00:55:03.992Z,0.00
2019-06-25T00:56:03.990Z,0.00
2019-06-25T00:57:03.971Z,0.00
2019-06-25T00:58:03.957Z,0.00
2019-06-25T00:59:03.945Z,0.00
2019-06-25T01:00:13.009Z,0.00
2019-06-25T01:01:03.925Z,0.00
2019-06-25T01:02:03.908Z,0.00
2019-06-25T01:03:03.894Z,0.00
2019-06-25T01:04:03.883Z,0.00
2019-06-25T01:05:03.875Z,0.00
2019-06-25T01:06:03.860Z,0.00
2019-06-25T01:07:03.850Z,0.00
2019-06-25T01:08:03.837Z,0.00
2019-06-25T01:09:03.826Z,0.00
2019-06-25T01:10:03.811Z,0.00
2019-06-25T01:11:03.798Z,0.00
2019-06-25T01:12:03.785Z,0.00
2019-06-25T01:13:03.784Z,0.00
2019-06-25T01:14:03.763Z,0.00
2019-06-25T01:15:03.749Z,0.00
2019-06-25T01:16:03.741Z,0.00
2019-06-25T01:17:03.727Z,0.00
2019-06-25T01:18:03.717Z,0.00
2019-06-25T01:19:03.707Z,0.00
2019-06-25T01:20:03.687Z,0.00
2019-06-25T01:21:03.675Z,0.00
2019-06-25T01:22:03.664Z,0.00
2019-06-25T01:23:03.650Z,0.00
2019-06-25T01:24:03.639Z,0.00
2019-06-25T01:25:03.631Z,0.00
2019-06-25T01:26:03.616Z,0.00
2019-06-25T01:27:03.603Z,0.00
2019-06-25T01:28:03.591Z,0.00
2019-06-25T01:29:03.586Z,0.00
2019-06-25T01:30:03.566Z,0.00
2019-06-25T01:31:03.558Z,0.00
2019-06-25T01:32:03.543Z,0.00
2019-06-25T01:33:03.533Z,0.00
2019-06-25T01:34:03.518Z,0.00
2019-06-25T01:35:03.505Z,0.00
2019-06-25T01:36:03.492Z,0.00
2019-06-25T01:37:03.482Z,0.00
2019-06-25T01:38:03.468Z,0.00
2019-06-25T01:39:03.461Z,0.00
2019-06-25T01:40:03.447Z,0.00
2019-06-25T01:41:03.433Z,0.00
2019-06-25T01:42:03.419Z,0.00
2019-06-25T01:43:03.406Z,0.00
2019-06-25T01:44:03.394Z,0.00
2019-06-25T01:45:03.382Z,0.00
2019-06-25T01:46:03.371Z,0.00
2019-06-25T01:47:03.359Z,0.00
2019-06-25T01:48:03.355Z,0.00
2019-06-25T01:49:03.337Z,0.00
2019-06-25T01:50:03.325Z,0.00
2019-06-25T01:51:03.308Z,0.00
2019-06-25T01:52:03.299Z,0.00
2019-06-25T01:53:03.291Z,0.00
2019-06-25T01:54:03.277Z,0.00
2019-06-25T01:55:03.261Z,0.00
2019-06-25T01:56:03.248Z,0.00
2019-06-25T01:57:03.248Z,0.00
2019-06-25T01:58:03.223Z,0.00
2019-06-25T01:59:03.214Z,0.00
2019-06-25T02:00:03.212Z,0.00
2019-06-25T02:01:03.186Z,0.00
2019-06-25T02:02:03.175Z,0.00
2019-06-25T02:03:03.164Z,0.00
2019-06-25T02:04:03.150Z,0.00
2019-06-25T02:05:03.139Z,0.00
2019-06-25T02:06:03.139Z,0.00
2019-06-25T02:07:03.113Z,0.00
2019-06-25T02:08:03.102Z,0.00
2019-06-25T02:09:03.091Z,0.00
2019-06-25T02:10:03.075Z,0.00
2019-06-25T02:11:03.064Z,0.00
2019-06-25T02:12:03.062Z,0.00
2019-06-25T02:13:03.038Z,0.00
2019-06-25T02:14:03.026Z,0.00
2019-06-25T02:15:03.014Z,0.00
2019-06-25T02:16:03.004Z,0.00
2019-06-25T02:17:02.991Z,0.00
2019-06-25T02:18:02.980Z,0.00
2019-06-25T02:19:02.963Z,0.00
2019-06-25T02:20:02.962Z,0.00
2019-06-25T02:21:02.949Z,0.00
2019-06-25T02:22:02.927Z,0.00
2019-06-25T02:23:02.922Z,0.00
2019-06-25T02:24:02.901Z,0.00
2019-06-25T02:25:02.953Z,0.00
2019-06-25T02:26:02.876Z,0.00
2019-06-25T02:27:02.865Z,0.00
2019-06-25T02:28:02.853Z,0.00
2019-06-25T02:29:02.840Z,0.00
2019-06-25T02:30:02.827Z,0.00
2019-06-25T02:31:08.119Z,0.00
2019-06-25T02:32:02.799Z,0.00
2019-06-25T02:33:02.785Z,0.00
2019-06-25T02:34:02.773Z,0.00
2019-06-25T02:35:02.759Z,0.00
2019-06-25T02:36:02.747Z,0.00
2019-06-25T02:37:02.735Z,0.00
2019-06-25T02:38:02.722Z,0.00
2019-06-25T02:39:02.707Z,0.00
2019-06-25T02:40:02.698Z,0.00
2019-06-25T02:41:02.683Z,0.00
2019-06-25T02:42:02.669Z,0.00
2019-06-25T02:43:02.654Z,0.00
2019-06-25T02:44:02.641Z,0.00
2019-06-25T02:45:02.640Z,0.00
2019-06-25T02:46:02.624Z,0.00
2019-06-25T02:47:02.647Z,0.00
2019-06-25T02:48:02.592Z,0.00
2019-06-25T02:49:02.584Z,0.00
2019-06-25T02:50:02.637Z,0.00
2019-06-25T02:51:02.549Z,0.00
2019-06-25T02:52:02.538Z,0.00
2019-06-25T02:53:02.528Z,0.00
2019-06-25T02:54:02.513Z,0.00
2019-06-25T02:55:02.499Z,0.00
2019-06-25T02:56:02.484Z,0.00
2019-06-25T02:57:02.473Z,0.00
2019-06-25T02:58:02.462Z,0.00
2019-06-25T02:59:02.448Z,0.00
2019-06-25T03:00:02.440Z,0.00
2019-06-25T03:01:02.418Z,0.00
2019-06-25T03:02:02.411Z,0.00
2019-06-25T03:03:02.405Z,0.00
2019-06-25T03:04:02.410Z,0.00
2019-06-25T03:05:02.368Z,0.00
2019-06-25T03:06:02.353Z,0.00
2019-06-25T03:07:02.345Z,0.00
2019-06-25T03:08:02.327Z,0.00
2019-06-25T03:09:02.313Z,0.00
2019-06-25T03:10:02.300Z,0.00
2019-06-25T03:11:02.294Z,0.00
2019-06-25T03:12:02.275Z,0.00
2019-06-25T03:13:02.269Z,5.63
2019-06-25T03:14:02.253Z,5.63
2019-06-25T03:15:02.239Z,5.63
2019-06-25T03:16:02.224Z,5.63
2019-06-25T03:17:02.214Z,5.63
2019-06-25T03:18:02.196Z,5.63
2019-06-25T03:19:02.183Z,5.63
2019-06-25T03:20:02.169Z,5.63
2019-06-25T03:21:02.156Z,5.63
2019-06-25T03:22:02.143Z,5.63
2019-06-25T03:23:02.143Z,5.63
2019-06-25T03:24:02.122Z,11.25
2019-06-25T03:25:02.105Z,11.25
2019-06-25T03:26:02.097Z,11.25
2019-06-25T03:27:02.076Z,11.25
2019-06-25T03:28:02.084Z,16.88
2019-06-25T03:29:02.051Z,16.88
2019-06-25T03:30:02.116Z,16.88
2019-06-25T03:31:02.027Z,16.88
2019-06-25T03:32:07.733Z,16.88
2019-06-25T03:33:02.001Z,22.50
2019-06-25T03:34:01.985Z,22.50
2019-06-25T03:35:01.981Z,22.50
2019-06-25T03:36:01.960Z,22.50
2019-06-25T03:37:01.947Z,22.50
2019-06-25T03:38:01.936Z,28.13
2019-06-25T03:39:01.919Z,28.13
2019-06-25T03:40:01.906Z,28.13
2019-06-25T03:41:02.075Z,28.13
2019-06-25T03:42:01.882Z,28.13
2019-06-25T03:43:01.901Z,28.13
2019-06-25T03:44:01.854Z,33.75
2019-06-25T03:45:01.840Z,33.75
2019-06-25T03:46:01.826Z,33.75
2019-06-25T03:47:01.879Z,33.75
2019-06-25T03:48:01.803Z,39.38
2019-06-25T03:49:01.790Z,39.38
2019-06-25T03:50:01.778Z,39.38
2019-06-25T03:51:01.763Z,45.00
2019-06-25T03:52:01.755Z,45.00
2019-06-25T03:53:01.941Z,45.00
2019-06-25T03:54:01.733Z,50.63
2019-06-25T03:55:01.707Z,50.63
2019-06-25T03:56:01.713Z,50.63
2019-06-25T03:57:01.693Z,50.63
2019-06-25T03:58:01.672Z,50.63
2019-06-25T03:59:01.661Z,56.25
2019-06-25T04:00:01.658Z,56.25
2019-06-25T04:01:01.984Z,56.25
2019-06-25T04:02:16.560Z,61.88
2019-06-25T04:03:01.696Z,61.88
2019-06-25T04:04:01.594Z,61.88
2019-06-25T04:05:01.589Z,67.50
2019-06-25T04:06:01.567Z,67.50
2019-06-25T04:07:01.607Z,67.50
2019-06-25T04:08:01.552Z,73.13
2019-06-25T04:09:01.529Z,73.13
2019-06-25T04:10:01.519Z,78.75
2019-06-25T04:11:01.508Z,78.75
2019-06-25T04:12:01.490Z,78.75
2019-06-25T04:13:01.479Z,84.38
2019-06-25T04:14:01.466Z,84.38
2019-06-25T04:15:01.453Z,84.38
2019-06-25T04:16:01.441Z,90.00
2019-06-25T04:17:01.430Z,95.63
2019-06-25T04:18:01.417Z,95.63
2019-06-25T04:19:01.409Z,101.25
2019-06-25T04:20:01.484Z,101.25
2019-06-25T04:21:01.608Z,106.88
2019-06-25T04:22:01.365Z,112.50
2019-06-25T04:23:01.356Z,118.13
2019-06-25T04:24:01.466Z,123.75
2019-06-25T04:25:01.331Z,129.38
2019-06-25T04:26:01.318Z,135.00
2019-06-25T04:27:01.305Z,140.63
2019-06-25T04:28:01.293Z,146.25
2019-06-25T04:29:01.280Z,146.25
2019-06-25T04:30:01.269Z,151.88
2019-06-25T04:31:01.256Z,151.88
2019-06-25T04:32:01.420Z,151.88
2019-06-25T04:33:01.232Z,151.88
2019-06-25T04:34:01.221Z,146.25
2019-06-25T04:35:01.209Z,146.25
2019-06-25T04:36:01.201Z,146.25
2019-06-25T04:37:01.194Z,140.63
2019-06-25T04:38:01.178Z,140.63
2019-06-25T04:39:01.182Z,146.25
2019-06-25T04:40:01.153Z,140.63
2019-06-25T04:41:01.141Z,140.63
2019-06-25T04:42:01.136Z,140.63
2019-06-25T04:43:01.122Z,140.63
2019-06-25T04:44:01.112Z,146.25
2019-06-25T04:45:01.103Z,146.25
2019-06-25T04:46:01.086Z,146.25
2019-06-25T04:47:01.119Z,151.88
2019-06-25T04:48:01.067Z,157.50
2019-06-25T04:49:01.049Z,157.50
2019-06-25T04:50:01.037Z,163.13
2019-06-25T04:51:01.025Z,168.75
2019-06-25T04:52:01.062Z,180.00
2019-06-25T04:53:01.010Z,185.63
2019-06-25T04:54:00.992Z,196.88
2019-06-25T04:55:00.978Z,202.50
2019-06-25T04:56:00.967Z,208.13
2019-06-25T04:57:00.960Z,219.38
2019-06-25T04:58:00.952Z,225.00
2019-06-25T04:59:00.933Z,236.25
2019-06-25T05:00:00.925Z,241.88
2019-06-25T05:01:00.914Z,292.50
2019-06-25T05:02:00.900Z,315.00
2019-06-25T05:03:00.891Z,286.88
2019-06-25T05:04:00.916Z,326.25
2019-06-25T05:05:00.878Z,275.63
2019-06-25T05:06:00.865Z,258.75
2019-06-25T05:07:00.888Z,298.13
2019-06-25T05:08:00.860Z,309.38
2019-06-25T05:09:00.880Z,264.38
2019-06-25T05:10:00.826Z,258.75
2019-06-25T05:11:00.817Z,236.25
2019-06-25T05:12:00.825Z,236.25
2019-06-25T05:13:00.851Z,236.25
2019-06-25T05:14:00.790Z,236.25
2019-06-25T05:15:00.781Z,236.25
2019-06-25T05:16:00.806Z,241.88
2019-06-25T05:17:00.763Z,258.75
2019-06-25T05:18:00.752Z,253.13
2019-06-25T05:19:00.743Z,253.13
2019-06-25T05:20:00.738Z,258.75
2019-06-25T05:21:00.724Z,264.38
2019-06-25T05:22:00.715Z,275.63
2019-06-25T05:23:00.705Z,281.25
2019-06-25T05:24:00.695Z,292.50
2019-06-25T05:25:00.685Z,298.13
2019-06-25T05:26:00.679Z,303.75
2019-06-25T05:27:00.730Z,315.00
2019-06-25T05:28:00.659Z,326.25
2019-06-25T05:29:00.656Z,331.88
2019-06-25T05:30:00.647Z,343.13
2019-06-25T05:31:00.634Z,365.63
2019-06-25T05:32:00.621Z,376.88
2019-06-25T05:33:05.261Z,393.75
2019-06-25T05:34:00.606Z,388.13
2019-06-25T05:35:00.595Z,399.38
2019-06-25T05:36:00.587Z,393.75
2019-06-25T05:37:00.581Z,416.25
2019-06-25T05:38:00.572Z,416.25
2019-06-25T05:39:00.565Z,421.88
2019-06-25T05:40:00.561Z,438.75
2019-06-25T05:41:00.552Z,444.38
2019-06-25T05:42:00.547Z,450.00
2019-06-25T05:43:00.538Z,450.00
2019-06-25T05:44:00.532Z,450.00
2019-06-25T05:45:00.526Z,438.75
2019-06-25T05:46:00.529Z,438.75
2019-06-25T05:47:03.290Z,438.75
2019-06-25T05:48:00.514Z,438.75
2019-06-25T05:49:00.506Z,427.50
2019-06-25T05:50:00.501Z,416.25
2019-06-25T05:51:00.501Z,410.63
2019-06-25T05:52:00.530Z,416.25
2019-06-25T05:53:03.283Z,416.25
2019-06-25T05:54:00.479Z,416.25
2019-06-25T05:55:00.473Z,416.25
2019-06-25T05:56:00.473Z,427.50
2019-06-25T05:57:00.462Z,427.50
2019-06-25T05:58:00.456Z,410.63
2019-06-25T05:59:00.521Z,399.38
2019-06-25T06:00:00.469Z,393.75
2019-06-25T06:01:00.445Z,393.75
2019-06-25T06:02:00.434Z,393.75
2019-06-25T06:03:00.426Z,399.38
2019-06-25T06:04:00.438Z,405.00
2019-06-25T06:05:00.452Z,405.00
2019-06-25T06:06:00.455Z,410.63
2019-06-25T06:07:00.410Z,421.88
2019-06-25T06:08:00.398Z,427.50
2019-06-25T06:09:00.401Z,421.88
2019-06-25T06:10:00.383Z,421.88
2019-06-25T06:11:00.390Z,427.50
2019-06-25T06:12:00.403Z,433.13
2019-06-25T06:13:00.391Z,444.38
2019-06-25T06:14:00.366Z,455.63
2019-06-25T06:15:00.345Z,466.88
2019-06-25T06:16:00.347Z,495.00
2019-06-25T06:17:00.336Z,511.88
2019-06-25T06:18:00.358Z,506.25
2019-06-25T06:19:00.317Z,528.75
2019-06-25T06:20:00.310Z,540.00
2019-06-25T06:21:00.304Z,579.38
2019-06-25T06:22:00.304Z,624.38
2019-06-25T06:23:00.294Z,646.88
2019-06-25T06:24:00.310Z,585.00
2019-06-25T06:25:00.281Z,624.38
2019-06-25T06:26:00.273Z,663.75
2019-06-25T06:27:00.268Z,691.88
2019-06-25T06:28:00.268Z,635.63
2019-06-25T06:29:00.257Z,607.50
2019-06-25T06:30:00.615Z,613.13
2019-06-25T06:31:15.533Z,596.25
2019-06-25T06:32:00.249Z,590.63
2019-06-25T06:33:00.283Z,568.13
2019-06-25T06:34:00.237Z,596.25
2019-06-25T06:35:00.233Z,613.13
2019-06-25T06:36:00.235Z,618.75
2019-06-25T06:37:00.228Z,686.25
2019-06-25T06:38:00.232Z,691.88
2019-06-25T06:39:00.220Z,624.38
2019-06-25T06:40:00.221Z,613.13
2019-06-25T06:41:03.145Z,601.88
2019-06-25T06:42:00.202Z,556.88
2019-06-25T06:43:00.198Z,579.38
2019-06-25T06:44:00.193Z,624.38
2019-06-25T06:45:00.191Z,781.88
2019-06-25T06:46:00.183Z,871.88
2019-06-25T06:47:00.181Z,911.25
2019-06-25T06:48:00.177Z,973.13
2019-06-25T06:49:00.176Z,1006.88
2019-06-25T06:50:00.238Z,1029.38
2019-06-25T06:51:00.168Z,939.38
2019-06-25T06:52:00.205Z,787.50
2019-06-25T06:53:00.197Z,826.88
2019-06-25T06:54:00.169Z,978.75
2019-06-25T06:55:00.182Z,1001.25
2019-06-25T06:56:00.231Z,933.75
2019-06-25T06:57:00.158Z,883.13
2019-06-25T06:58:00.162Z,714.38
2019-06-25T06:59:00.849Z,776.25
2019-06-25T07:00:00.202Z,826.88
2019-06-25T07:01:00.173Z,675.00
2019-06-25T07:02:00.157Z,489.38
2019-06-25T07:03:01.903Z,517.50
2019-06-25T07:04:00.149Z,680.63
2019-06-25T07:05:00.182Z,838.13
2019-06-25T07:06:00.151Z,883.13
2019-06-25T07:07:00.160Z,911.25
2019-06-25T07:08:00.147Z,978.75
2019-06-25T07:09:00.186Z,1080.00
2019-06-25T07:10:00.154Z,1096.88
2019-06-25T07:11:00.137Z,1141.88
2019-06-25T07:12:00.143Z,1209.38
2019-06-25T07:13:00.157Z,1226.25
2019-06-25T07:14:00.145Z,1271.25
2019-06-25T07:15:00.150Z,1310.63
2019-06-25T07:16:00.156Z,1344.38
2019-06-25T07:17:00.140Z,1372.50
2019-06-25T07:18:00.155Z,1434.38
2019-06-25T07:19:00.151Z,1423.13
2019-06-25T07:20:00.157Z,1406.25
2019-06-25T07:21:00.152Z,894.38
2019-06-25T07:22:00.155Z,1164.38
2019-06-25T07:23:00.156Z,967.50
2019-06-25T07:24:00.159Z,736.88
2019-06-25T07:25:00.182Z,714.38
2019-06-25T07:26:00.148Z,663.75
2019-06-25T07:27:00.205Z,652.50
2019-06-25T07:28:00.353Z,680.63
2019-06-25T07:29:00.149Z,652.50
2019-06-25T07:30:00.271Z,635.63
2019-06-25T07:31:00.186Z,646.88
2019-06-25T07:32:00.128Z,736.88
2019-06-25T07:33:00.174Z,742.50
2019-06-25T07:34:09.187Z,753.75
2019-06-25T07:35:00.152Z,720.00
2019-06-25T07:36:00.128Z,720.00
2019-06-25T07:37:00.125Z,922.50
2019-06-25T07:38:00.187Z,1282.50
2019-06-25T07:39:00.195Z,1378.13
2019-06-25T07:40:00.168Z,1181.25
2019-06-25T07:41:00.141Z,1170.00
2019-06-25T07:42:00.149Z,793.13
2019-06-25T07:43:00.163Z,1338.75
2019-06-25T07:44:00.120Z,1080.00
2019-06-25T07:45:00.137Z,1254.38
2019-06-25T07:46:00.131Z,1203.75
2019-06-25T07:49:31.915Z,1524.38
2019-06-25T07:50:31.874Z,1541.25
2019-06-25T07:51:31.873Z,1541.25
2019-06-25T07:52:31.889Z,1546.88
2019-06-25T07:53:31.850Z,1563.75
2019-06-25T07:54:31.853Z,1569.38
2019-06-25T07:55:31.865Z,1563.75
2019-06-25T07:56:36.443Z,1558.13
2019-06-25T07:57:31.852Z,1563.75
2019-06-25T07:58:31.871Z,1575.00
2019-06-25T07:59:31.861Z,1569.38
2019-06-25T08:00:31.864Z,1563.75
2019-06-25T08:01:31.877Z,1569.38
2019-06-25T08:02:31.888Z,1569.38
2019-06-25T08:03:31.869Z,1569.38
2019-06-25T08:04:31.864Z,1575.00
2019-06-25T08:05:31.864Z,1597.50
2019-06-25T08:06:31.866Z,1597.50
2019-06-25T08:07:31.873Z,1603.13
2019-06-25T08:08:31.882Z,1614.38
2019-06-25T08:09:31.875Z,1614.38
2019-06-25T08:10:31.873Z,1625.63
2019-06-25T08:11:31.880Z,1631.25
2019-06-25T08:12:31.877Z,1648.13
2019-06-25T08:13:31.879Z,1659.38
2019-06-25T08:14:31.890Z,1670.63
2019-06-25T08:15:31.894Z,1670.63
2019-06-25T08:16:31.923Z,1676.25
2019-06-25T08:17:31.901Z,1681.88
2019-06-25T08:18:31.901Z,1693.13
2019-06-25T08:19:31.891Z,1698.75
2019-06-25T08:20:31.909Z,1704.38
2019-06-25T08:21:31.885Z,1715.63
2019-06-25T08:22:31.890Z,1726.88
2019-06-25T08:23:31.892Z,1738.13
2019-06-25T08:24:31.944Z,1738.13
2019-06-25T08:25:31.971Z,1743.75
2019-06-25T08:26:31.921Z,1755.00
2019-06-25T08:27:31.955Z,1766.25
2019-06-25T08:28:31.917Z,1777.50
2019-06-25T08:29:31.924Z,1783.13
2019-06-25T08:30:31.929Z,1783.13
2019-06-25T08:31:32.018Z,1788.75
2019-06-25T08:32:31.906Z,1783.13
2019-06-25T08:33:31.907Z,1788.75
2019-06-25T08:34:41.435Z,1794.38
2019-06-25T08:35:31.923Z,1800.00
2019-06-25T08:36:31.934Z,1805.63
2019-06-25T08:37:31.958Z,1811.25
2019-06-25T08:38:31.910Z,1805.63
2019-06-25T08:39:32.008Z,1816.88
2019-06-25T08:40:31.965Z,1816.88
2019-06-25T08:41:32.043Z,1822.50
2019-06-25T08:42:31.966Z,1822.50
2019-06-25T08:43:32.036Z,1822.50
2019-06-25T08:44:32.011Z,1833.75
2019-06-25T08:45:31.940Z,1828.13
2019-06-25T08:46:31.986Z,1833.75
2019-06-25T08:47:31.943Z,1828.13
2019-06-25T08:48:33.361Z,1828.13
2019-06-25T08:49:31.948Z,1833.75
2019-06-25T08:50:31.934Z,1828.13
2019-06-25T08:51:31.959Z,1828.13
2019-06-25T08:52:31.937Z,1828.13
2019-06-25T08:53:31.967Z,1839.38
2019-06-25T08:54:31.943Z,1839.38
2019-06-25T08:55:31.937Z,1828.13
2019-06-25T08:56:31.948Z,1839.38
2019-06-25T08:57:31.965Z,1833.75
2019-06-25T08:58:31.971Z,1839.38
2019-06-25T08:59:31.966Z,1845.00
2019-06-25T09:00:31.943Z,1850.63
2019-06-25T09:01:32.205Z,1856.25
2019-06-25T09:02:32.368Z,1850.63
2019-06-25T09:03:32.314Z,1867.50
2019-06-25T09:04:31.958Z,1861.88
2019-06-25T09:05:31.946Z,1856.25
2019-06-25T09:06:31.947Z,1856.25
2019-06-25T09:07:31.947Z,1861.88
2019-06-25T09:08:31.959Z,1861.88
2019-06-25T09:09:31.950Z,1861.88
2019-06-25T09:10:31.954Z,1867.50
2019-06-25T09:11:31.980Z,1867.50
2019-06-25T09:12:31.952Z,1890.00
2019-06-25T09:13:31.952Z,1878.75
2019-06-25T09:14:31.953Z,1873.13
2019-06-25T09:15:31.956Z,1878.75
2019-06-25T09:16:31.980Z,1884.38
2019-06-25T09:17:31.938Z,1884.38
2019-06-25T09:18:31.995Z,1890.00
2019-06-25T09:19:32.048Z,1890.00
2019-06-25T09:20:32.007Z,1906.88
2019-06-25T09:21:31.939Z,1901.25
2019-06-25T09:22:31.973Z,1906.88
2019-06-25T09:23:32.029Z,1912.50
2019-06-25T09:24:31.946Z,1918.13
2019-06-25T09:25:31.963Z,1918.13
2019-06-25T09:26:32.190Z,1923.75
2019-06-25T09:27:32.015Z,1935.00
2019-06-25T09:28:31.952Z,1935.00
2019-06-25T09:29:31.958Z,1940.63
2019-06-25T09:30:32.428Z,1946.25
2019-06-25T09:31:31.973Z,1957.50
2019-06-25T09:32:31.992Z,1951.88
2019-06-25T09:33:31.984Z,1968.75
2019-06-25T09:34:31.998Z,1963.13
2019-06-25T09:35:31.983Z,1968.75
2019-06-25T09:36:31.984Z,1974.38
2019-06-25T09:37:31.985Z,1980.00
2019-06-25T09:38:31.995Z,1980.00
2019-06-25T09:39:31.986Z,2002.50
2019-06-25T09:40:31.988Z,2002.50
2019-06-25T09:41:32.019Z,1996.88
2019-06-25T09:42:31.989Z,2008.13
2019-06-25T09:43:31.994Z,2013.75
2019-06-25T09:44:31.992Z,2019.38
2019-06-25T09:45:32.002Z,2036.25
2019-06-25T09:46:31.987Z,2041.88
2019-06-25T09:47:32.428Z,2036.25
2019-06-25T09:48:31.976Z,2047.50
2019-06-25T09:49:31.983Z,2047.50
2019-06-25T09:50:32.902Z,2053.13
2019-06-25T09:51:31.984Z,2070.00
2019-06-25T09:52:32.136Z,2041.88
2019-06-25T09:53:32.073Z,2070.00
2019-06-25T09:54:32.129Z,2081.25
2019-06-25T09:55:33.058Z,2098.13
2019-06-25T09:56:32.431Z,2098.13
2019-06-25T09:57:32.382Z,2103.75
2019-06-25T09:58:32.462Z,2120.63
2019-06-25T09:59:32.252Z,2126.25
2019-06-25T10:00:32.437Z,2131.88
2019-06-25T10:01:44.777Z,2137.50
2019-06-25T10:02:32.312Z,2137.50
2019-06-25T10:03:32.201Z,2148.75
2019-06-25T10:04:35.679Z,2154.38
2019-06-25T10:05:32.251Z,2176.88
2019-06-25T10:06:32.311Z,2171.25
2019-06-25T10:07:32.340Z,2176.88
2019-06-25T10:08:32.549Z,2188.13
2019-06-25T10:09:32.279Z,2210.63
2019-06-25T10:10:32.386Z,2210.63
2019-06-25T10:11:32.041Z,2210.63
2019-06-25T10:12:32.037Z,2216.25
2019-06-25T10:13:32.038Z,2238.75
2019-06-25T10:14:32.040Z,2250.00
2019-06-25T10:15:32.042Z,2250.00
2019-06-25T10:16:32.170Z,2261.25
2019-06-25T10:17:32.120Z,2283.75
2019-06-25T10:18:43.904Z,2295.00
2019-06-25T10:19:32.382Z,2300.63
2019-06-25T10:20:32.416Z,2317.50
2019-06-25T10:21:32.121Z,2323.13
2019-06-25T10:22:32.162Z,2345.63
2019-06-25T10:23:32.720Z,2362.50
2019-06-25T10:24:32.426Z,2379.38
2019-06-25T10:25:32.055Z,2379.38
2019-06-25T10:26:32.057Z,2396.25
2019-06-25T10:27:32.058Z,2390.63
2019-06-25T10:28:38.931Z,2407.50
2019-06-25T10:29:32.062Z,2424.38
2019-06-25T10:30:32.085Z,2430.00
2019-06-25T10:31:32.371Z,2435.63
2019-06-25T10:32:32.948Z,2452.50
2019-06-25T10:33:32.098Z,2469.38
2019-06-25T10:34:32.084Z,2463.75
2019-06-25T10:35:46.482Z,2486.25
2019-06-25T10:36:32.075Z,2503.13
2019-06-25T10:37:32.082Z,2503.13
2019-06-25T10:38:32.081Z,2520.00
2019-06-25T10:39:32.078Z,2491.88
2019-06-25T10:40:32.085Z,2503.13
2019-06-25T10:41:32.082Z,2559.38
2019-06-25T10:42:32.084Z,2593.13
2019-06-25T10:43:32.088Z,2559.38
2019-06-25T10:44:32.086Z,2576.25
2019-06-25T10:45:32.088Z,2559.38
2019-06-25T10:46:32.164Z,2576.25
2019-06-25T10:47:32.278Z,2615.63
2019-06-25T10:48:32.264Z,2688.75
2019-06-25T10:49:32.234Z,2711.25
2019-06-25T10:50:32.201Z,2621.25
2019-06-25T10:51:32.186Z,2705.63
2019-06-25T10:52:32.230Z,2711.25
2019-06-25T10:53:32.410Z,2700.00
2019-06-25T10:54:32.500Z,2700.00
2019-06-25T10:55:32.211Z,2722.50
2019-06-25T10:56:32.392Z,2671.88
2019-06-25T10:57:32.233Z,2733.75
2019-06-25T10:58:32.383Z,2750.63
2019-06-25T10:59:32.819Z,2778.75
2019-06-25T11:00:32.400Z,2801.25
2019-06-25T11:01:32.473Z,2818.13
2019-06-25T11:02:32.284Z,2823.75
2019-06-25T11:03:32.293Z,2835.00
2019-06-25T11:04:32.280Z,2846.25
2019-06-25T11:05:32.243Z,2868.75
2019-06-25T11:06:32.379Z,2874.38
2019-06-25T11:07:32.336Z,2863.13
2019-06-25T11:08:32.295Z,2761.88
2019-06-25T11:09:32.203Z,2790.00
2019-06-25T11:10:32.488Z,2829.38
2019-06-25T11:11:32.315Z,2857.50
2019-06-25T11:12:32.325Z,2880.00
2019-06-25T11:13:32.290Z,2880.00
2019-06-25T11:14:32.588Z,2880.00
2019-06-25T11:15:32.195Z,2891.25
2019-06-25T11:16:32.164Z,2880.00
2019-06-25T11:17:32.160Z,2902.50
2019-06-25T11:18:32.170Z,2913.75
2019-06-25T11:19:32.173Z,2902.50
2019-06-25T11:20:32.161Z,2908.13
2019-06-25T11:21:32.166Z,2925.00
2019-06-25T11:22:32.210Z,2941.88
2019-06-25T11:23:32.661Z,2981.25
2019-06-25T11:24:32.178Z,2970.00
2019-06-25T11:25:32.176Z,2981.25
2019-06-25T11:26:32.188Z,2975.63
2019-06-25T11:27:32.209Z,2998.13
2019-06-25T11:28:32.185Z,3009.38
2019-06-25T11:29:32.229Z,3026.25
2019-06-25T11:30:32.198Z,2992.50
2019-06-25T11:31:32.583Z,2975.63
2019-06-25T11:32:32.268Z,2975.63
2019-06-25T11:33:32.491Z,2626.88
2019-06-25T11:34:32.629Z,2981.25
2019-06-25T11:35:32.611Z,2953.13
2019-06-25T11:36:32.738Z,2986.88
2019-06-25T11:37:32.395Z,2936.25
2019-06-25T11:38:32.345Z,2913.75
2019-06-25T11:39:32.437Z,2840.63
2019-06-25T11:40:32.586Z,2812.50
2019-06-25T11:41:32.366Z,2874.38
2019-06-25T11:42:32.438Z,2998.13
2019-06-25T11:43:43.747Z,2930.63
2019-06-25T11:44:32.513Z,3020.63
2019-06-25T11:45:32.490Z,3009.38
2019-06-25T11:46:32.693Z,3048.75
2019-06-25T11:47:32.641Z,3048.75
2019-06-25T11:48:32.397Z,3093.75
2019-06-25T11:49:32.930Z,3093.75
2019-06-25T11:50:32.463Z,3060.00
2019-06-25T11:51:32.480Z,2936.25
2019-06-25T11:52:32.468Z,2913.75
2019-06-25T11:53:32.437Z,2964.38
2019-06-25T11:54:32.413Z,2958.75
2019-06-25T11:55:32.425Z,2986.88
2019-06-25T11:56:32.455Z,2958.75
2019-06-25T11:57:33.240Z,2986.88
2019-06-25T11:58:32.502Z,2958.75
2019-06-25T11:59:32.493Z,2998.13
2019-06-25T12:00:32.607Z,3031.88
2019-06-25T12:01:32.512Z,3037.50
2019-06-25T12:02:32.449Z,2941.88
2019-06-25T12:03:32.440Z,2863.13
2019-06-25T12:04:32.453Z,2958.75
2019-06-25T12:05:32.452Z,2941.88
2019-06-25T12:06:38.530Z,3015.00
2019-06-25T12:07:32.485Z,3037.50
2019-06-25T12:08:32.502Z,3071.25
2019-06-25T12:09:32.658Z,3099.38
2019-06-25T12:10:32.619Z,3031.88
2019-06-25T12:11:32.509Z,2998.13
2019-06-25T12:12:32.488Z,3026.25
2019-06-25T12:13:32.524Z,3060.00
2019-06-25T12:14:32.501Z,3037.50
2019-06-25T12:15:32.498Z,2981.25
2019-06-25T12:16:32.718Z,2953.13
2019-06-25T12:17:32.670Z,3015.00
2019-06-25T12:18:32.494Z,2986.88
2019-06-25T12:19:47.427Z,2655.00
2019-06-25T12:20:32.582Z,2986.88
2019-06-25T12:21:32.575Z,2986.88
2019-06-25T12:22:32.514Z,2891.25
2019-06-25T12:23:32.529Z,2941.88
2019-06-25T12:24:32.545Z,2953.13
2019-06-25T12:25:32.559Z,2919.38
2019-06-25T12:26:32.547Z,2857.50
2019-06-25T12:27:32.764Z,2638.13
2019-06-25T12:28:32.576Z,2238.75
2019-06-25T12:29:32.806Z,1355.63
2019-06-25T12:30:32.653Z,1434.38
2019-06-25T12:31:32.594Z,2289.38
2019-06-25T12:32:32.675Z,2368.13
2019-06-25T12:33:32.587Z,2475.00
2019-06-25T12:34:32.724Z,2565.00
2019-06-25T12:35:32.561Z,2716.88